sensor_id;sensor_type;location;lat;lon;timestamp;pressure;altitude;pressure_sealevel;temperature;humidity
74613;BME280;63119;51.788;8.824;2023-01-28T00:00:02;101245.88;;;1.90;78.08
74613;BME280;63119;51.788;8.824;2023-01-28T00:02:28;101245.91;;;1.87;77.45
74613;BME280;63119;51.788;8.824;2023-01-28T00:04:53;101248.50;;;1.90;77.79
74613;BME280;63119;51.788;8.824;2023-01-28T00:07:19;101254.59;;;1.91;77.84
74613;BME280;63119;51.788;8.824;2023-01-28T00:09:45;101252.84;;;1.91;78.34
74613;BME280;63119;51.788;8.824;2023-01-28T00:12:10;101258.09;;;1.88;78.27
74613;BME280;63119;51.788;8.824;2023-01-28T00:14:36;101257.31;;;1.82;77.80
74613;BME280;63119;51.788;8.824;2023-01-28T00:17:04;101252.09;;;1.82;77.59
74613;BME280;63119;51.788;8.824;2023-01-28T00:19:29;101256.44;;;1.81;77.96
74613;BME280;63119;51.788;8.824;2023-01-28T00:21:54;101248.53;;;1.86;78.07
74613;BME280;63119;51.788;8.824;2023-01-28T00:24:19;101249.44;;;1.83;77.59
74613;BME280;63119;51.788;8.824;2023-01-28T00:26:45;101250.34;;;1.81;77.20
74613;BME280;63119;51.788;8.824;2023-01-28T00:29:10;101250.34;;;1.82;77.87
74613;BME280;63119;51.788;8.824;2023-01-28T00:31:35;101253.06;;;1.73;77.35
74613;BME280;63119;51.788;8.824;2023-01-28T00:34:01;101259.03;;;1.80;77.54
74613;BME280;63119;51.788;8.824;2023-01-28T00:36:26;101264.25;;;1.81;77.84
74613;BME280;63119;51.788;8.824;2023-01-28T00:38:54;101257.22;;;1.86;78.14
74613;BME280;63119;51.788;8.824;2023-01-28T00:41:21;101254.63;;;1.86;77.75
74613;BME280;63119;51.788;8.824;2023-01-28T00:43:48;101260.75;;;1.85;77.93
74613;BME280;63119;51.788;8.824;2023-01-28T00:46:13;101251.22;;;1.81;78.12
74613;BME280;63119;51.788;8.824;2023-01-28T00:48:40;101258.16;;;1.82;78.08
74613;BME280;63119;51.788;8.824;2023-01-28T00:51:08;101261.69;;;1.78;78.33
74613;BME280;63119;51.788;8.824;2023-01-28T00:53:33;101260.78;;;1.82;77.98
74613;BME280;63119;51.788;8.824;2023-01-28T00:56:00;101261.66;;;1.81;78.25
74613;BME280;63119;51.788;8.824;2023-01-28T00:58:25;101256.47;;;1.78;77.83
74613;BME280;63119;51.788;8.824;2023-01-28T01:00:51;101254.69;;;1.80;77.86
74613;BME280;63119;51.788;8.824;2023-01-28T01:03:17;101262.53;;;1.80;77.69
74613;BME280;63119;51.788;8.824;2023-01-28T01:05:43;101261.69;;;1.77;77.61
74613;BME280;63119;51.788;8.824;2023-01-28T01:08:08;101266.16;;;1.69;77.25
74613;BME280;63119;51.788;8.824;2023-01-28T01:10:34;101261.84;;;1.66;77.46
74613;BME280;63119;51.788;8.824;2023-01-28T01:12:59;101266.19;;;1.65;77.96
74613;BME280;63119;51.788;8.824;2023-01-28T01:15:25;101263.63;;;1.61;77.44
74613;BME280;63119;51.788;8.824;2023-01-28T01:17:50;101264.41;;;1.67;77.42
74613;BME280;63119;51.788;8.824;2023-01-28T01:20:20;101254.88;;;1.65;77.66
74613;BME280;63119;51.788;8.824;2023-01-28T01:22:46;101257.41;;;1.73;77.72
74613;BME280;63119;51.788;8.824;2023-01-28T01:25:13;101260.91;;;1.72;77.82
74613;BME280;63119;51.788;8.824;2023-01-28T01:27:39;101254.78;;;1.74;77.95
74613;BME280;63119;51.788;8.824;2023-01-28T01:30:05;101250.38;;;1.78;77.73
74613;BME280;63119;51.788;8.824;2023-01-28T01:32:31;101260.00;;;1.74;77.21
74613;BME280;63119;51.788;8.824;2023-01-28T01:34:59;101253.03;;;1.76;77.09
74613;BME280;63119;51.788;8.824;2023-01-28T01:37:24;101251.31;;;1.72;76.92
74613;BME280;63119;51.788;8.824;2023-01-28T01:39:49;101250.41;;;1.75;77.63
74613;BME280;63119;51.788;8.824;2023-01-28T01:42:15;101250.50;;;1.69;77.20
74613;BME280;63119;51.788;8.824;2023-01-28T01:47:42;101254.75;;;1.76;77.66
74613;BME280;63119;51.788;8.824;2023-01-28T01:50:37;101255.72;;;1.70;77.47
74613;BME280;63119;51.788;8.824;2023-01-28T01:53:09;101264.31;;;1.77;77.38
74613;BME280;63119;51.788;8.824;2023-01-28T01:55:37;101260.81;;;1.78;77.02
74613;BME280;63119;51.788;8.824;2023-01-28T01:58:06;101263.53;;;1.70;77.35
74613;BME280;63119;51.788;8.824;2023-01-28T02:00:32;101267.06;;;1.66;77.07
74613;BME280;63119;51.788;8.824;2023-01-28T02:02:57;101273.06;;;1.71;77.55
74613;BME280;63119;51.788;8.824;2023-01-28T02:05:23;101260.88;;;1.73;77.48
74613;BME280;63119;51.788;8.824;2023-01-28T02:07:51;101271.31;;;1.73;77.38
74613;BME280;63119;51.788;8.824;2023-01-28T02:10:20;101266.94;;;1.75;77.12
74613;BME280;63119;51.788;8.824;2023-01-28T02:12:49;101266.94;;;1.74;77.38
74613;BME280;63119;51.788;8.824;2023-01-28T02:15:19;101268.69;;;1.76;76.58
74613;BME280;63119;51.788;8.824;2023-01-28T02:17:45;101273.00;;;1.79;76.94
74613;BME280;63119;51.788;8.824;2023-01-28T02:23:34;101269.56;;;1.75;77.45
74613;BME280;63119;51.788;8.824;2023-01-28T02:26:24;101277.38;;;1.74;77.02
74613;BME280;63119;51.788;8.824;2023-01-28T02:29:12;101280.88;;;1.74;77.03
74613;BME280;63119;51.788;8.824;2023-01-28T02:34:46;101286.16;;;1.68;77.44
74613;BME280;63119;51.788;8.824;2023-01-28T02:37:24;101283.56;;;1.67;77.15
74613;BME280;63119;51.788;8.824;2023-01-28T02:39:54;101284.41;;;1.70;76.80
74613;BME280;63119;51.788;8.824;2023-01-28T02:42:24;101279.28;;;1.61;75.83
74613;BME280;63119;51.788;8.824;2023-01-28T02:44:51;101274.13;;;1.55;76.21
74613;BME280;63119;51.788;8.824;2023-01-28T02:47:16;101269.72;;;1.58;76.78
74613;BME280;63119;51.788;8.824;2023-01-28T02:50:02;101271.47;;;1.61;76.88
74613;BME280;63119;51.788;8.824;2023-01-28T02:52:50;101276.66;;;1.64;76.87
74613;BME280;63119;51.788;8.824;2023-01-28T02:58:16;101278.31;;;1.68;76.75
74613;BME280;63119;51.788;8.824;2023-01-28T03:00:49;101281.84;;;1.67;76.09
74613;BME280;63119;51.788;8.824;2023-01-28T03:03:28;101278.34;;;1.67;77.07
74613;BME280;63119;51.788;8.824;2023-01-28T03:06:00;101280.94;;;1.68;76.91
74613;BME280;63119;51.788;8.824;2023-01-28T03:08:52;101283.53;;;1.70;75.90
74613;BME280;63119;51.788;8.824;2023-01-28T03:11:40;101279.28;;;1.61;75.92
74613;BME280;63119;51.788;8.824;2023-01-28T03:14:25;101274.06;;;1.61;75.85
74613;BME280;63119;51.788;8.824;2023-01-28T03:20:21;101279.28;;;1.61;76.58
74613;BME280;63119;51.788;8.824;2023-01-28T03:23:10;101281.91;;;1.61;75.88
74613;BME280;63119;51.788;8.824;2023-01-28T03:25:58;101271.47;;;1.61;76.69
74613;BME280;63119;51.788;8.824;2023-01-28T03:28:45;101281.09;;;1.53;76.08
74613;BME280;63119;51.788;8.824;2023-01-28T03:31:30;101270.63;;;1.56;76.01
74613;BME280;63119;51.788;8.824;2023-01-28T03:34:16;101277.53;;;1.63;75.90
74613;BME280;63119;51.788;8.824;2023-01-28T03:37:00;101276.69;;;1.61;75.92
74613;BME280;63119;51.788;8.824;2023-01-28T03:39:27;101285.38;;;1.60;75.07
74613;BME280;63119;51.788;8.824;2023-01-28T03:42:04;101291.47;;;1.59;75.90
74613;BME280;63119;51.788;8.824;2023-01-28T03:44:31;101282.81;;;1.55;76.21
74613;BME280;63119;51.788;8.824;2023-01-28T03:47:23;101288.84;;;1.59;76.01
74613;BME280;63119;51.788;8.824;2023-01-28T03:49:50;101282.75;;;1.63;75.88
74613;BME280;63119;51.788;8.824;2023-01-28T03:52:18;101277.56;;;1.60;75.59
74613;BME280;63119;51.788;8.824;2023-01-28T03:54:47;101269.72;;;1.58;76.11
74613;BME280;63119;51.788;8.824;2023-01-28T03:57:16;101261.94;;;1.55;76.01
74613;BME280;63119;51.788;8.824;2023-01-28T03:59:42;101265.44;;;1.53;76.15
74613;BME280;63119;51.788;8.824;2023-01-28T04:02:09;101268.09;;;1.50;76.17
74613;BME280;63119;51.788;8.824;2023-01-28T04:04:39;101261.97;;;1.54;76.22
74613;BME280;63119;51.788;8.824;2023-01-28T04:07:06;101267.19;;;1.52;76.43
74613;BME280;63119;51.788;8.824;2023-01-28T04:09:35;101272.53;;;1.42;76.47
74613;BME280;63119;51.788;8.824;2023-01-28T04:12:01;101282.94;;;1.45;76.46
74613;BME280;63119;51.788;8.824;2023-01-28T04:14:26;101285.50;;;1.46;76.84
74613;BME280;63119;51.788;8.824;2023-01-28T04:16:52;101288.94;;;1.51;76.51
74613;BME280;63119;51.788;8.824;2023-01-28T04:19:19;101288.09;;;1.51;76.32
74613;BME280;63119;51.788;8.824;2023-01-28T04:21:44;101295.03;;;1.52;76.33
74613;BME280;63119;51.788;8.824;2023-01-28T04:24:10;101295.06;;;1.49;76.60
74613;BME280;63119;51.788;8.824;2023-01-28T04:26:35;101294.19;;;1.47;77.07
74613;BME280;63119;51.788;8.824;2023-01-28T04:29:00;101297.75;;;1.43;76.91
74613;BME280;63119;51.788;8.824;2023-01-28T04:31:25;101293.34;;;1.48;76.64
74613;BME280;63119;51.788;8.824;2023-01-28T04:33:51;101286.41;;;1.45;75.75
74613;BME280;63119;51.788;8.824;2023-01-28T04:36:16;101287.28;;;1.44;75.91
74613;BME280;63119;51.788;8.824;2023-01-28T04:38:41;101293.34;;;1.45;75.46
74613;BME280;63119;51.788;8.824;2023-01-28T04:41:07;101292.47;;;1.47;75.57
74613;BME280;63119;51.788;8.824;2023-01-28T04:43:32;101302.91;;;1.46;74.70
74613;BME280;63119;51.788;8.824;2023-01-28T04:45:57;101306.38;;;1.48;74.49
74613;BME280;63119;51.788;8.824;2023-01-28T04:48:22;101308.09;;;1.49;74.32
74613;BME280;63119;51.788;8.824;2023-01-28T04:50:48;101309.84;;;1.47;74.26
74613;BME280;63119;51.788;8.824;2023-01-28T04:53:13;101310.78;;;1.43;71.79
74613;BME280;63119;51.788;8.824;2023-01-28T04:55:38;101312.44;;;1.47;72.40
74613;BME280;63119;51.788;8.824;2023-01-28T04:58:04;101310.72;;;1.49;72.38
74613;BME280;63119;51.788;8.824;2023-01-28T05:00:29;101310.75;;;1.46;72.66
74613;BME280;63119;51.788;8.824;2023-01-28T05:02:54;101310.75;;;1.46;72.38
74613;BME280;63119;51.788;8.824;2023-01-28T05:05:20;101312.44;;;1.50;72.23
74613;BME280;63119;51.788;8.824;2023-01-28T05:07:53;101308.09;;;1.47;70.46
74613;BME280;63119;51.788;8.824;2023-01-28T05:10:19;101316.06;;;1.37;70.76
74613;BME280;63119;51.788;8.824;2023-01-28T05:12:45;101310.78;;;1.43;71.98
74613;BME280;63119;51.788;8.824;2023-01-28T05:15:11;101317.72;;;1.42;71.75
74613;BME280;63119;51.788;8.824;2023-01-28T05:17:36;101316.84;;;1.45;72.19
74613;BME280;63119;51.788;8.824;2023-01-28T05:20:02;101321.19;;;1.46;72.61
74613;BME280;63119;51.788;8.824;2023-01-28T05:22:28;101319.44;;;1.45;73.19
74613;BME280;63119;51.788;8.824;2023-01-28T05:24:53;101319.44;;;1.45;72.93
74613;BME280;63119;51.788;8.824;2023-01-28T05:27:18;101316.00;;;1.43;73.62
74613;BME280;63119;51.788;8.824;2023-01-28T05:29:43;101316.00;;;1.41;73.31
74613;BME280;63119;51.788;8.824;2023-01-28T05:32:09;101318.56;;;1.44;73.22
74613;BME280;63119;51.788;8.824;2023-01-28T05:34:34;101316.06;;;1.34;73.40
74613;BME280;63119;51.788;8.824;2023-01-28T05:36:59;101317.81;;;1.32;74.00
74613;BME280;63119;51.788;8.824;2023-01-28T05:39:24;101314.41;;;1.27;73.81
74613;BME280;63119;51.788;8.824;2023-01-28T05:41:50;101323.91;;;1.28;73.14
74613;BME280;63119;51.788;8.824;2023-01-28T05:44:15;101321.28;;;1.34;73.49
74613;BME280;63119;51.788;8.824;2023-01-28T05:46:40;101310.00;;;1.33;72.81
74613;BME280;63119;51.788;8.824;2023-01-28T05:49:09;101319.53;;;1.34;73.05
74613;BME280;63119;51.788;8.824;2023-01-28T05:51:37;101323.84;;;1.38;72.67
74613;BME280;63119;51.788;8.824;2023-01-28T05:54:03;101321.28;;;1.34;72.07
74613;BME280;63119;51.788;8.824;2023-01-28T05:56:28;101313.44;;;1.35;72.03
74613;BME280;63119;51.788;8.824;2023-01-28T05:58:53;101321.25;;;1.37;71.24
74613;BME280;63119;51.788;8.824;2023-01-28T06:01:19;101321.25;;;1.35;71.60
74613;BME280;63119;51.788;8.824;2023-01-28T06:03:44;101323.00;;;1.35;71.85
74613;BME280;63119;51.788;8.824;2023-01-28T06:06:09;101319.53;;;1.34;71.40
74613;BME280;63119;51.788;8.824;2023-01-28T06:08:35;101323.88;;;1.37;72.08
74613;BME280;63119;51.788;8.824;2023-01-28T06:11:01;101329.94;;;1.39;71.48
74613;BME280;63119;51.788;8.824;2023-01-28T06:13:26;101319.50;;;1.37;71.59
74613;BME280;63119;51.788;8.824;2023-01-28T06:15:52;101335.13;;;1.39;71.95
74613;BME280;63119;51.788;8.824;2023-01-28T06:18:17;101333.41;;;1.38;71.76
74613;BME280;63119;51.788;8.824;2023-01-28T06:20:42;101337.75;;;1.37;71.33
74613;BME280;63119;51.788;8.824;2023-01-28T06:23:07;101336.91;;;1.37;72.79
74613;BME280;63119;51.788;8.824;2023-01-28T06:25:33;101329.97;;;1.36;72.93
74613;BME280;63119;51.788;8.824;2023-01-28T06:27:58;101329.09;;;1.35;71.82
74613;BME280;63119;51.788;8.824;2023-01-28T06:30:24;101336.00;;;1.38;71.72
74613;BME280;63119;51.788;8.824;2023-01-28T06:32:53;101347.38;;;1.32;71.07
74613;BME280;63119;51.788;8.824;2023-01-28T06:35:18;101345.63;;;1.33;71.35
74613;BME280;63119;51.788;8.824;2023-01-28T06:37:44;101341.38;;;1.21;71.36
74613;BME280;63119;51.788;8.824;2023-01-28T06:40:10;101339.72;;;1.09;71.62
74613;BME280;63119;51.788;8.824;2023-01-28T06:42:35;101340.56;;;1.15;71.70
74613;BME280;63119;51.788;8.824;2023-01-28T06:45:00;101342.28;;;1.16;71.70
74613;BME280;63119;51.788;8.824;2023-01-28T06:47:26;101336.22;;;1.15;71.54
74613;BME280;63119;51.788;8.824;2023-01-28T06:49:51;101340.53;;;1.16;71.94
74613;BME280;63119;51.788;8.824;2023-01-28T06:52:16;101343.97;;;1.23;71.92
74613;BME280;63119;51.788;8.824;2023-01-28T06:54:42;101332.69;;;1.19;71.79
74613;BME280;63119;51.788;8.824;2023-01-28T06:57:07;101326.59;;;1.19;72.02
74613;BME280;63119;51.788;8.824;2023-01-28T06:59:32;101321.41;;;1.19;71.71
74613;BME280;63119;51.788;8.824;2023-01-28T07:01:58;101325.78;;;1.18;72.05
74613;BME280;63119;51.788;8.824;2023-01-28T07:04:24;101329.19;;;1.22;72.94
74613;BME280;63119;51.788;8.824;2023-01-28T07:06:49;101330.94;;;1.23;72.79
74613;BME280;63119;51.788;8.824;2023-01-28T07:09:14;101336.19;;;1.21;72.44
74613;BME280;63119;51.788;8.824;2023-01-28T07:11:39;101332.66;;;1.22;73.11
74613;BME280;63119;51.788;8.824;2023-01-28T07:14:04;101331.81;;;1.23;73.78
74613;BME280;63119;51.788;8.824;2023-01-28T07:16:30;101326.56;;;1.25;73.49
74613;BME280;63119;51.788;8.824;2023-01-28T07:18:55;101335.28;;;1.24;73.94
74613;BME280;63119;51.788;8.824;2023-01-28T07:21:20;101336.22;;;1.14;73.10
74613;BME280;63119;51.788;8.824;2023-01-28T07:23:46;101331.91;;;1.11;73.66
74613;BME280;63119;51.788;8.824;2023-01-28T07:26:11;101338.84;;;1.15;74.21
74613;BME280;63119;51.788;8.824;2023-01-28T07:28:36;101341.41;;;1.18;73.78
74613;BME280;63119;51.788;8.824;2023-01-28T07:31:01;101340.53;;;1.18;73.82
74613;BME280;63119;51.788;8.824;2023-01-28T07:33:27;101340.50;;;1.22;73.95
74613;BME280;63119;51.788;8.824;2023-01-28T07:35:52;101334.41;;;1.22;73.15
74613;BME280;63119;51.788;8.824;2023-01-28T07:38:17;101324.88;;;1.21;73.11
74613;BME280;63119;51.788;8.824;2023-01-28T07:40:43;101325.75;;;1.20;72.17
74613;BME280;63119;51.788;8.824;2023-01-28T07:43:09;101330.09;;;1.19;73.15
74613;BME280;63119;51.788;8.824;2023-01-28T07:45:35;101324.88;;;1.21;73.48
74613;BME280;63119;51.788;8.824;2023-01-28T07:48:03;101336.19;;;1.18;73.35
74613;BME280;63119;51.788;8.824;2023-01-28T07:50:33;101330.13;;;1.18;73.51
74613;BME280;63119;51.788;8.824;2023-01-28T07:53:00;101329.22;;;1.19;73.38
74613;BME280;63119;51.788;8.824;2023-01-28T07:55:26;101349.22;;;1.17;73.00
74613;BME280;63119;51.788;8.824;2023-01-28T07:57:57;101344.00;;;1.17;73.18
74613;BME280;63119;51.788;8.824;2023-01-28T08:00:24;101341.41;;;1.18;73.06
74613;BME280;63119;51.788;8.824;2023-01-28T08:02:53;101350.97;;;1.18;73.60
74613;BME280;63119;51.788;8.824;2023-01-28T08:05:20;101350.09;;;1.17;74.16
74613;BME280;63119;51.788;8.824;2023-01-28T08:07:46;101354.41;;;1.20;74.18
74613;BME280;63119;51.788;8.824;2023-01-28T08:10:15;101357.03;;;1.21;74.42
74613;BME280;63119;51.788;8.824;2023-01-28T08:12:50;101359.59;;;1.23;74.66
74613;BME280;63119;51.788;8.824;2023-01-28T08:15:16;101367.41;;;1.26;74.44
74613;BME280;63119;51.788;8.824;2023-01-28T08:17:41;101376.78;;;1.46;76.34
74613;BME280;63119;51.788;8.824;2023-01-28T08:20:07;101369.06;;;1.36;74.74
74613;BME280;63119;51.788;8.824;2023-01-28T08:22:33;101369.88;;;1.41;74.13
74613;BME280;63119;51.788;8.824;2023-01-28T08:24:58;101379.44;;;1.42;74.33
74613;BME280;63119;51.788;8.824;2023-01-28T08:27:23;101380.34;;;1.38;73.94
74613;BME280;63119;51.788;8.824;2023-01-28T08:29:48;101377.75;;;1.39;74.34
74613;BME280;63119;51.788;8.824;2023-01-28T08:32:14;101371.59;;;1.43;73.78
74613;BME280;63119;51.788;8.824;2023-01-28T08:34:39;101382.00;;;1.48;73.91
74613;BME280;63119;51.788;8.824;2023-01-28T08:37:05;101384.63;;;1.48;73.30
74613;BME280;63119;51.788;8.824;2023-01-28T08:39:30;101390.66;;;1.50;73.42
74613;BME280;63119;51.788;8.824;2023-01-28T08:41:55;101396.69;;;1.56;73.26
74613;BME280;63119;51.788;8.824;2023-01-28T08:44:20;101403.63;;;1.60;72.26
74613;BME280;63119;51.788;8.824;2023-01-28T08:46:46;101406.28;;;1.53;69.12
74613;BME280;63119;51.788;8.824;2023-01-28T08:49:11;101400.19;;;1.55;69.35
74613;BME280;63119;51.788;8.824;2023-01-28T08:51:36;101405.38;;;1.58;69.96
74613;BME280;63119;51.788;8.824;2023-01-28T08:54:01;101413.13;;;1.69;70.72
74613;BME280;63119;51.788;8.824;2023-01-28T08:56:27;101411.44;;;1.63;70.18
74613;BME280;63119;51.788;8.824;2023-01-28T08:58:52;101413.16;;;1.66;70.47
74613;BME280;63119;51.788;8.824;2023-01-28T09:01:17;101407.06;;;1.65;70.01
74613;BME280;63119;51.788;8.824;2023-01-28T09:03:43;101414.06;;;1.60;70.20
74613;BME280;63119;51.788;8.824;2023-01-28T09:06:08;101418.34;;;1.69;69.83
74613;BME280;63119;51.788;8.824;2023-01-28T09:08:33;101427.09;;;1.62;67.80
74613;BME280;63119;51.788;8.824;2023-01-28T09:10:59;101434.00;;;1.69;68.62
74613;BME280;63119;51.788;8.824;2023-01-28T09:13:24;101427.88;;;1.73;68.26
74613;BME280;63119;51.788;8.824;2023-01-28T09:15:50;101437.41;;;1.76;67.98
74613;BME280;63119;51.788;8.824;2023-01-28T09:18:16;101447.81;;;1.79;68.52
74613;BME280;63119;51.788;8.824;2023-01-28T09:20:42;101445.22;;;1.79;68.60
74613;BME280;63119;51.788;8.824;2023-01-28T09:23:07;101455.63;;;1.82;69.27
74613;BME280;63119;51.788;8.824;2023-01-28T09:25:33;101456.53;;;1.79;69.17
74613;BME280;63119;51.788;8.824;2023-01-28T09:28:00;101458.22;;;1.80;68.43
74613;BME280;63119;51.788;8.824;2023-01-28T09:30:26;101462.63;;;1.74;67.74
74613;BME280;63119;51.788;8.824;2023-01-28T09:32:53;101459.13;;;1.79;68.19
74613;BME280;63119;51.788;8.824;2023-01-28T09:35:18;101459.09;;;1.81;66.81
74613;BME280;63119;51.788;8.824;2023-01-28T09:37:44;101460.81;;;1.85;66.23
74613;BME280;63119;51.788;8.824;2023-01-28T09:40:38;101466.06;;;1.80;66.94
74613;BME280;63119;51.788;8.824;2023-01-28T09:43:39;101466.03;;;1.85;66.39
74613;BME280;63119;51.788;8.824;2023-01-28T09:46:11;101465.13;;;1.87;66.18
74613;BME280;63119;51.788;8.824;2023-01-28T09:48:51;101474.78;;;1.78;66.59
74613;BME280;63119;51.788;8.824;2023-01-28T09:51:38;101493.16;;;1.67;66.43
74613;BME280;63119;51.788;8.824;2023-01-28T09:54:11;101489.66;;;1.65;66.90
74613;BME280;63119;51.788;8.824;2023-01-28T09:56:42;101492.25;;;1.70;67.22
74613;BME280;63119;51.788;8.824;2023-01-28T09:59:21;101488.81;;;1.61;66.26
74613;BME280;63119;51.788;8.824;2023-01-28T10:02:11;101483.63;;;1.60;67.89
74613;BME280;63119;51.788;8.824;2023-01-28T10:04:56;101487.06;;;1.65;67.52
74613;BME280;63119;51.788;8.824;2023-01-28T10:10:18;101474.97;;;1.56;67.46
74613;BME280;63119;51.788;8.824;2023-01-28T10:13:03;101479.22;;;1.65;67.83
74613;BME280;63119;51.788;8.824;2023-01-28T10:15:54;101486.25;;;1.60;67.38
74613;BME280;63119;51.788;8.824;2023-01-28T10:18:29;101485.34;;;1.62;68.29
74613;BME280;63119;51.788;8.824;2023-01-28T10:21:05;101475.81;;;1.60;67.93
74613;BME280;63119;51.788;8.824;2023-01-28T10:23:43;101483.63;;;1.60;67.50
74613;BME280;63119;51.788;8.824;2023-01-28T10:26:22;101476.69;;;1.60;66.73
74613;BME280;63119;51.788;8.824;2023-01-28T10:28:54;101468.03;;;1.52;67.27
74613;BME280;63119;51.788;8.824;2023-01-28T10:31:21;101472.38;;;1.55;66.79
74613;BME280;63119;51.788;8.824;2023-01-28T10:33:47;101470.66;;;1.51;65.57
74613;BME280;63119;51.788;8.824;2023-01-28T10:36:13;101474.09;;;1.57;66.39
74613;BME280;63119;51.788;8.824;2023-01-28T10:38:39;101467.94;;;1.61;66.61
74613;BME280;63119;51.788;8.824;2023-01-28T10:41:04;101446.16;;;1.70;68.05
74613;BME280;63119;51.788;8.824;2023-01-28T10:43:32;101447.81;;;1.77;66.79
74613;BME280;63119;51.788;8.824;2023-01-28T10:48:37;101456.63;;;1.67;64.30
74613;BME280;63119;51.788;8.824;2023-01-28T10:51:04;101447.09;;;1.61;66.05
74613;BME280;63119;51.788;8.824;2023-01-28T10:53:37;101455.81;;;1.56;65.86
74613;BME280;63119;51.788;8.824;2023-01-28T10:56:24;101464.41;;;1.73;67.13
74613;BME280;63119;51.788;8.824;2023-01-28T10:58:59;101460.00;;;1.78;66.97
74613;BME280;63119;51.788;8.824;2023-01-28T11:01:43;101451.09;;;2.00;69.78
74613;BME280;63119;51.788;8.824;2023-01-28T11:04:16;101459.91;;;1.90;64.38
74613;BME280;63119;51.788;8.824;2023-01-28T11:06:51;101460.66;;;2.01;64.90
74613;BME280;63119;51.788;8.824;2023-01-28T11:09:31;101463.22;;;2.04;64.55
74613;BME280;63119;51.788;8.824;2023-01-28T11:11:57;101465.31;;;1.69;63.61
74613;BME280;63119;51.788;8.824;2023-01-28T11:14:23;101468.75;;;1.71;64.91
74613;BME280;63119;51.788;8.824;2023-01-28T11:16:50;101474.75;;;1.84;65.07
74613;BME280;63119;51.788;8.824;2023-01-28T11:19:18;101481.63;;;1.94;66.03
74613;BME280;63119;51.788;8.824;2023-01-28T11:21:53;101483.31;;;1.98;65.68
74613;BME280;63119;51.788;8.824;2023-01-28T11:24:30;101477.28;;;1.91;65.77
74613;BME280;63119;51.788;8.824;2023-01-28T11:27:10;101477.28;;;1.90;66.75
74613;BME280;63119;51.788;8.824;2023-01-28T11:29:39;101474.66;;;1.94;66.06
74613;BME280;63119;51.788;8.824;2023-01-28T11:32:15;101486.91;;;1.85;65.81
74613;BME280;63119;51.788;8.824;2023-01-28T11:34:51;101482.47;;;1.97;66.30
74613;BME280;63119;51.788;8.824;2023-01-28T11:37:16;101472.03;;;1.94;65.26
74613;BME280;63119;51.788;8.824;2023-01-28T11:39:44;101472.06;;;1.91;64.88
74613;BME280;63119;51.788;8.824;2023-01-28T11:42:14;101468.59;;;1.91;64.90
74613;BME280;63119;51.788;8.824;2023-01-28T11:44:40;101469.50;;;1.88;65.39
74613;BME280;63119;51.788;8.824;2023-01-28T11:52:20;101466.81;;;1.97;65.13
74613;BME280;63119;51.788;8.824;2023-01-28T11:55:16;101465.03;;;1.99;64.77
74613;BME280;63119;51.788;8.824;2023-01-28T12:03:14;101460.72;;;1.97;63.47
74613;BME280;63119;51.788;8.824;2023-01-28T12:05:50;101464.09;;;2.05;64.17
74613;BME280;63119;51.788;8.824;2023-01-28T12:08:21;101444.25;;;1.87;64.05
74613;BME280;63119;51.788;8.824;2023-01-28T12:11:26;101440.75;;;1.91;63.49
74613;BME280;63119;51.788;8.824;2023-01-28T12:14:54;101434.41;;;2.13;62.62
74613;BME280;63119;51.788;8.824;2023-01-28T12:20:27;101426.69;;;3.39;62.01
74613;BME280;63119;51.788;8.824;2023-01-28T12:23:02;101428.56;;;3.29;60.72
74613;BME280;63119;51.788;8.824;2023-01-28T12:25:52;101424.78;;;2.92;60.45
74613;BME280;63119;51.788;8.824;2023-01-28T12:28:40;101423.63;;;2.45;61.49
74613;BME280;63119;51.788;8.824;2023-01-28T12:34:10;101409.69;;;2.43;62.64
74613;BME280;63119;51.788;8.824;2023-01-28T12:36:51;101407.91;;;2.48;62.18
74613;BME280;63119;51.788;8.824;2023-01-28T12:39:44;101413.25;;;2.38;61.23
74613;BME280;63119;51.788;8.824;2023-01-28T12:42:26;101412.25;;;2.51;62.51
74613;BME280;63119;51.788;8.824;2023-01-28T12:45:00;101405.13;;;2.62;60.67
74613;BME280;63119;51.788;8.824;2023-01-28T12:47:34;101395.25;;;2.84;60.35
74613;BME280;63119;51.788;8.824;2023-01-28T12:50:30;101381.16;;;3.49;59.81
74613;BME280;63119;51.788;8.824;2023-01-28T12:53:01;101349.00;;;3.91;55.37
74613;BME280;63119;51.788;8.824;2023-01-28T12:58:02;101336.66;;;4.79;52.92
74613;BME280;63119;51.788;8.824;2023-01-28T13:05:50;101301.09;;;5.04;51.31
74613;BME280;63119;51.788;8.824;2023-01-28T13:08:24;101301.88;;;4.32;53.12
74613;BME280;63119;51.788;8.824;2023-01-28T13:10:51;101292.84;;;3.12;56.70
74613;BME280;63119;51.788;8.824;2023-01-28T13:13:30;101301.88;;;2.93;56.85
74613;BME280;63119;51.788;8.824;2023-01-28T13:15:56;101302.41;;;2.58;58.87
74613;BME280;63119;51.788;8.824;2023-01-28T13:23:49;101310.59;;;3.44;58.45
74613;BME280;63119;51.788;8.824;2023-01-28T13:28:44;101327.06;;;3.97;56.89
74613;BME280;63119;51.788;8.824;2023-01-28T13:31:11;101323.34;;;3.64;56.81
74613;BME280;63119;51.788;8.824;2023-01-28T13:33:44;101330.03;;;3.31;58.43
74613;BME280;63119;51.788;8.824;2023-01-28T13:36:27;101322.34;;;3.20;57.67
74613;BME280;63119;51.788;8.824;2023-01-28T13:39:16;101325.19;;;3.07;58.23
74613;BME280;63119;51.788;8.824;2023-01-28T13:41:47;101330.53;;;2.99;57.97
74613;BME280;63119;51.788;8.824;2023-01-28T13:52:24;101365.16;;;3.15;59.87
74613;BME280;63119;51.788;8.824;2023-01-28T14:19:56;101392.28;;;3.09;60.40
74613;BME280;63119;51.788;8.824;2023-01-28T14:22:22;101395.94;;;2.96;59.67
74613;BME280;63119;51.788;8.824;2023-01-28T14:24:48;101387.31;;;2.91;60.83
74613;BME280;63119;51.788;8.824;2023-01-28T14:27:18;101389.09;;;2.86;61.08
74613;BME280;63119;51.788;8.824;2023-01-28T14:30:03;101371.75;;;2.82;60.86
74613;BME280;63119;51.788;8.824;2023-01-28T14:32:33;101367.00;;;2.49;61.41
74613;BME280;63119;51.788;8.824;2023-01-28T14:35:05;101356.50;;;2.52;61.47
74613;BME280;63119;51.788;8.824;2023-01-28T14:37:31;101342.56;;;2.51;61.13
74613;BME280;63119;51.788;8.824;2023-01-28T14:40:03;101336.34;;;2.60;61.33